Time;durP1;ratioP1;P1;durP2;ratioP2;P2;SDS_P1;SDS_P2;PMS_P1;PMS_P2;Temp;Humidity;BMP_temperature;BMP_pressure;BME280_temperature;BME280_humidity;BME280_pressure;Samples;Min_cycle;Max_cycle;Signal;HPM_P1;HPM_P2
2022/01/19 00:02:19;;;;;;;;;17.00;15.25;;;;;8.74;69.15;102363.19;5072342;28;46024;-79
2022/01/19 00:08:06;;;;;;;;;15.75;15.50;;;;;8.74;68.88;102370.19;5073573;28;45612;-78
2022/01/19 00:10:32;;;;;;;;;17.75;17.50;;;;;8.73;68.94;102374.53;5073328;28;46929;-78
2022/01/19 00:12:58;;;;;;;;;16.00;15.75;;;;;8.73;69.05;102371.06;5073816;28;46474;-79
2022/01/19 00:15:26;;;;;;;;;16.75;15.25;;;;;8.70;69.10;102358.97;5073879;28;45536;-78
2022/01/19 00:17:57;;;;;;;;;16.25;15.25;;;;;8.74;69.05;102357.09;5073577;28;45893;-79
2022/01/19 00:20:24;;;;;;;;;16.00;16.00;;;;;8.74;69.02;102344.91;5073497;28;46341;-81
2022/01/19 00:22:50;;;;;;;;;20.00;14.50;;;;;8.74;68.96;102336.22;5073933;28;46098;-80
2022/01/19 00:25:17;;;;;;;;;19.00;15.75;;;;;8.75;68.95;102314.38;5073943;28;45703;-78
2022/01/19 00:27:42;;;;;;;;;29.00;24.00;;;;;8.75;68.64;102315.22;5073696;28;45672;-79
2022/01/19 00:30:09;;;;;;;;;23.50;21.00;;;;;8.71;68.89;102294.50;5073936;28;46335;-80
2022/01/19 00:32:35;;;;;;;;;22.25;20.00;;;;;8.74;68.91;102297.88;5073964;28;45822;-78
2022/01/19 00:38:22;;;;;;;;;14.00;14.00;;;;;8.62;68.79;102268.72;5073462;28;45640;-78
2022/01/19 00:40:47;;;;;;;;;18.75;16.00;;;;;8.71;68.76;102291.88;5073836;28;46536;-78
2022/01/19 00:43:14;;;;;;;;;21.00;17.25;;;;;8.65;68.79;102292.09;5073500;28;47245;-78
2022/01/19 00:45:40;;;;;;;;;18.75;17.25;;;;;8.66;68.63;102299.03;5074140;28;45886;-80
2022/01/19 00:48:05;;;;;;;;;19.25;17.75;;;;;8.65;68.92;102303.41;5073474;28;45648;-78
2022/01/19 00:50:31;;;;;;;;;17.00;15.50;;;;;8.66;68.65;102297.28;5073517;28;45632;-78
2022/01/19 00:52:57;;;;;;;;;18.50;15.75;;;;;8.66;68.71;102299.88;5057636;28;47075;-79
2022/01/19 00:55:25;;;;;;;;;15.25;14.00;;;;;8.68;68.63;102305.06;5077442;28;45661;-79
2022/01/19 00:57:51;;;;;;;;;20.50;15.50;;;;;8.66;68.77;102309.47;5077290;28;45550;-80
2022/01/19 01:00:20;;;;;;;;;18.50;15.00;;;;;8.68;68.62;102305.94;5077233;28;46352;-80
2022/01/19 01:02:46;;;;;;;;;13.50;13.25;;;;;8.62;68.74;102290.47;5077732;28;46190;-79
2022/01/19 01:08:33;;;;;;;;;14.25;13.50;;;;;8.51;68.76;102274.31;5079035;28;45583;-78
2022/01/19 01:10:58;;;;;;;;;16.50;16.00;;;;;8.54;68.55;102281.19;5089445;28;45560;-77
2022/01/19 01:18:23;;;;;;;;;19.00;18.00;;;;;8.55;68.47;102254.16;5077361;28;45575;-78
2022/01/19 01:20:52;;;;;;;;;16.75;15.25;;;;;8.61;68.64;102262.63;5076207;28;45586;-78
2022/01/19 01:23:23;;;;;;;;;19.25;17.25;;;;;8.59;68.56;102250.50;5076452;28;45968;-80
2022/01/19 01:25:49;;;;;;;;;18.75;16.50;;;;;8.64;68.72;102256.41;5076003;28;45664;-78
2022/01/19 01:28:15;;;;;;;;;21.25;18.00;;;;;8.63;68.63;102257.34;5076296;28;45577;-77
2022/01/19 01:30:41;;;;;;;;;22.25;19.25;;;;;8.63;68.65;102259.97;5076008;28;46829;-80
2022/01/19 01:33:07;;;;;;;;;17.75;16.00;;;;;8.64;68.57;102261.66;5089242;28;46278;-79
2022/01/19 01:38:54;;;;;;;;;19.25;15.50;;;;;8.64;68.32;102270.34;5098521;28;45179;-78
2022/01/19 01:41:19;;;;;;;;;18.75;17.75;;;;;8.57;68.52;102257.56;5099579;28;47176;-78
2022/01/19 01:43:45;;;;;;;;;16.50;15.00;;;;;8.60;68.38;102263.53;5079034;28;46599;-80
2022/01/19 01:46:41;;;;;;;;;17.75;15.00;;;;;8.60;68.50;102257.44;5078172;28;45669;-79
2022/01/19 01:49:14;;;;;;;;;19.50;18.00;;;;;8.65;68.50;102271.19;5078101;28;45770;-79
2022/01/19 01:54:24;;;;;;;;;19.25;15.25;;;;;8.66;68.49;102259.84;5082555;28;46221;-81
2022/01/19 01:56:49;;;;;;;;;21.00;19.50;;;;;8.67;68.35;102254.56;5079337;28;46161;-80
2022/01/19 01:59:14;;;;;;;;;18.75;18.00;;;;;8.68;68.35;102250.19;5084835;28;45633;-80
2022/01/19 02:01:41;;;;;;;;;20.00;17.75;;;;;8.62;68.49;102238.22;5077671;28;47228;-80
2022/01/19 02:04:06;;;;;;;;;21.75;20.00;;;;;8.69;68.43;102244.06;5076032;27;45672;-80
2022/01/19 02:06:37;;;;;;;;;21.50;18.75;;;;;8.67;68.44;102241.50;5076433;28;45651;-79
2022/01/19 02:09:13;;;;;;;;;19.75;17.75;;;;;8.66;68.24;102233.72;5076183;28;45734;-79
2022/01/19 02:23:04;;;;;;;;;20.75;19.25;;;;;8.69;68.21;102204.88;5075433;28;45611;-78
2022/01/19 02:25:36;;;;;;;;;20.50;18.25;;;;;8.64;68.11;102178.06;5075502;28;46163;-79
2022/01/19 02:41:36;;;;;;;;;23.25;20.25;;;;;8.62;68.13;102161.59;5075692;28;45742;-79
2022/01/19 02:44:02;;;;;;;;;24.25;22.00;;;;;8.62;67.98;102162.47;5075455;28;47517;-79
2022/01/19 02:52:50;;;;;;;;;21.00;19.25;;;;;8.59;67.96;102154.72;4996743;28;45854;-81
2022/01/19 02:55:15;;;;;;;;;19.25;18.25;;;;;8.53;67.97;102139.28;4992047;28;45886;-77
2022/01/19 02:57:42;;;;;;;;;22.00;20.50;;;;;8.57;68.11;102143.50;4992825;28;45929;-78
2022/01/19 03:09:05;;;;;;;;;20.25;19.00;;;;;8.57;67.95;102138.28;4933810;28;45866;-79
2022/01/19 03:11:32;;;;;;;;;24.00;19.75;;;;;8.56;67.98;102130.47;4934311;28;45890;-80
2022/01/19 03:13:57;;;;;;;;;25.50;21.50;;;;;8.43;67.89;102117.88;4934603;28;45622;-78
2022/01/19 03:16:23;;;;;;;;;20.75;18.00;;;;;8.52;67.91;102137.59;4933803;28;46706;-79
2022/01/19 03:18:49;;;;;;;;;20.50;19.25;;;;;8.45;67.81;102115.22;4934615;28;48160;-79
2022/01/19 03:24:38;;;;;;;;;24.50;20.50;;;;;8.44;68.02;102118.75;4940551;28;45632;-77
2022/01/19 03:27:05;;;;;;;;;26.50;21.00;;;;;8.49;67.77;102126.41;4951364;28;46749;-79
2022/01/19 03:29:31;;;;;;;;;25.00;23.50;;;;;8.43;68.00;102104.81;4956502;28;46010;-80
2022/01/19 03:31:56;;;;;;;;;25.75;21.75;;;;;8.46;67.74;102113.47;4955851;28;45503;-78
2022/01/19 03:34:24;;;;;;;;;26.75;22.75;;;;;8.38;67.96;102109.38;4938491;28;45943;-79
2022/01/19 03:36:49;;;;;;;;;23.75;21.00;;;;;8.43;67.90;102117.88;4953899;28;46787;-78
2022/01/19 03:39:15;;;;;;;;;23.00;22.75;;;;;8.43;67.75;102117.03;4953105;28;46260;-78
2022/01/19 03:41:40;;;;;;;;;23.00;21.00;;;;;8.34;67.86;102099.97;4959746;28;45624;-79
2022/01/19 03:44:06;;;;;;;;;19.50;18.25;;;;;8.36;67.85;102103.38;5054399;28;45787;-79
2022/01/19 03:46:42;;;;;;;;;22.25;20.25;;;;;8.39;67.64;102105.00;5054011;28;45629;-79
2022/01/19 03:49:12;;;;;;;;;24.50;22.75;;;;;8.39;67.91;102108.47;5053766;28;46372;-80
2022/01/19 03:51:38;;;;;;;;;26.50;22.25;;;;;8.39;68.19;102105.88;5059213;28;45895;-79
2022/01/19 03:54:04;;;;;;;;;24.25;22.75;;;;;8.37;67.74;102098.97;5074322;28;45770;-79
2022/01/19 03:56:30;;;;;;;;;20.75;20.00;;;;;8.33;67.85;102097.41;5073918;28;47337;-80
2022/01/19 03:58:55;;;;;;;;;29.50;25.00;;;;;8.37;67.92;102109.41;5074383;28;47023;-78
2022/01/19 04:01:20;;;;;;;;;25.00;23.00;;;;;8.33;67.66;102093.03;5073790;28;45791;-79
2022/01/19 04:04:08;;;;;;;;;28.00;25.50;;;;;8.36;67.50;102092.09;5056016;28;45933;-79
2022/01/19 04:09:18;;;;;;;;;27.75;24.75;;;;;8.33;67.59;102081.72;5073638;28;45982;-79
2022/01/19 04:11:44;;;;;;;;;23.50;22.75;;;;;8.32;67.86;102085.25;5073964;28;45509;-79
2022/01/19 04:16:35;;;;;;;;;27.50;24.25;;;;;8.24;67.83;102069.88;5073189;28;46243;-79
2022/01/19 04:19:19;;;;;;;;;20.75;18.50;;;;;8.30;67.76;102074.03;5073733;28;47047;-79
2022/01/19 04:21:45;;;;;;;;;22.75;20.25;;;;;8.28;67.84;102084.50;5073691;28;46042;-79
2022/01/19 04:24:10;;;;;;;;;24.50;23.50;;;;;8.30;67.90;102087.94;5072948;28;45490;-80
2022/01/19 04:26:36;;;;;;;;;23.75;21.25;;;;;8.29;67.58;102094.03;5073774;28;47262;-81
2022/01/19 04:29:01;;;;;;;;;25.50;20.00;;;;;8.25;67.67;102079.41;5075390;28;48332;-80
2022/01/19 04:31:27;;;;;;;;;24.50;21.25;;;;;8.29;67.85;102090.56;5077418;28;45699;-77
2022/01/19 04:33:52;;;;;;;;;28.25;22.25;;;;;8.27;67.95;102087.16;5059161;28;45688;-79
2022/01/19 05:03:40;;;;;;;;;28.75;24.75;;;;;7.94;67.84;102053.56;4994347;28;45898;-80
2022/01/19 05:13:24;;;;;;;;;24.25;22.50;;;;;8.15;67.88;102083.25;4994499;28;46067;-78
2022/01/19 05:14:56;;;;;;;;;25.75;23.25;;;;;8.19;67.82;102073.56;4994246;28;45697;-78
2022/01/19 05:17:21;;;;;;;;;21.00;20.00;;;;;8.16;67.92;102079.72;4994432;28;45679;-78
2022/01/19 05:19:46;;;;;;;;;27.50;23.50;;;;;8.11;68.06;102065.13;4994138;28;45711;-78
2022/01/19 05:25:34;;;;;;;;;29.00;23.00;;;;;8.19;68.15;102076.16;4993839;28;45711;-78
2022/01/19 05:27:59;;;;;;;;;28.50;22.50;;;;;8.16;67.86;102064.06;5031723;28;45937;-78
2022/01/19 05:30:24;;;;;;;;;27.50;21.75;;;;;8.15;67.87;102077.19;5076014;28;46596;-79
2022/01/19 05:32:50;;;;;;;;;25.75;23.50;;;;;8.11;68.15;102081.66;5076221;28;45629;-79
2022/01/19 05:35:16;;;;;;;;;24.50;21.75;;;;;8.09;68.07;102078.28;5075972;28;45512;-79
2022/01/19 05:41:03;;;;;;;;;30.00;23.25;;;;;7.90;67.90;102067.66;5075889;28;45603;-77
2022/01/19 05:43:28;;;;;;;;;28.00;24.50;;;;;7.97;68.17;102076.97;5075875;28;46191;-79
2022/01/19 05:45:54;;;;;;;;;33.25;26.25;;;;;7.90;68.04;102069.41;5075635;28;45787;-79
2022/01/19 05:48:19;;;;;;;;;26.50;23.25;;;;;7.84;68.28;102067.88;5075691;28;45582;-78
2022/01/19 05:50:45;;;;;;;;;29.25;24.25;;;;;7.66;68.31;102044.22;5057264;28;47898;-78
2022/01/19 05:53:11;;;;;;;;;27.00;22.50;;;;;7.74;68.12;102074.31;5075712;28;46257;-79
2022/01/19 05:55:36;;;;;;;;;29.50;23.50;;;;;7.72;68.13;102080.53;5075984;28;45679;-77
2022/01/19 05:58:01;;;;;;;;;25.25;23.50;;;;;7.70;68.32;102079.72;5076039;28;45526;-80
2022/01/19 06:00:27;;;;;;;;;29.00;27.25;;;;;7.59;68.10;102069.66;5075988;28;45476;-80
2022/01/19 06:02:52;;;;;;;;;28.75;25.75;;;;;7.57;68.32;102063.63;5075750;28;46083;-80
2022/01/19 06:05:18;;;;;;;;;27.50;23.50;;;;;7.63;68.65;102078.22;5075754;28;46122;-80
2022/01/19 06:11:05;;;;;;;;;26.00;24.00;;;;;7.45;68.59;102058.88;5075124;28;45582;-79
2022/01/19 06:13:30;;;;;;;;;26.25;24.25;;;;;7.47;68.74;102067.47;5075130;28;45940;-79
2022/01/19 06:15:55;;;;;;;;;30.75;24.75;;;;;7.32;69.05;102054.97;5075396;28;45652;-78
2022/01/19 06:18:21;;;;;;;;;31.00;26.00;;;;;7.44;68.96;102068.44;5075579;28;45447;-78
2022/01/19 06:20:47;;;;;;;;;32.25;26.75;;;;;7.40;68.95;102066.81;5075088;28;45632;-80
2022/01/19 06:23:12;;;;;;;;;29.50;24.25;;;;;7.15;69.19;102029.47;5075365;28;45578;-79
2022/01/19 06:25:38;;;;;;;;;35.50;27.25;;;;;7.32;69.04;102061.03;5076578;28;45779;-79
2022/01/19 06:28:03;;;;;;;;;23.25;22.00;;;;;7.36;68.95;102069.59;5077181;28;45675;-79
2022/01/19 06:30:29;;;;;;;;;27.00;25.50;;;;;7.31;69.27;102067.16;5075714;28;46533;-79
2022/01/19 06:32:54;;;;;;;;;26.50;22.75;;;;;7.37;69.12;102071.31;5075154;28;46022;-78
2022/01/19 06:35:21;;;;;;;;;28.50;25.25;;;;;7.37;69.32;102068.69;5056622;28;45614;-80
2022/01/19 06:41:08;;;;;;;;;31.25;27.50;;;;;7.27;69.77;102049.91;5074618;28;45622;-81
2022/01/19 06:43:33;;;;;;;;;26.25;24.75;;;;;7.34;69.56;102064.44;5074766;28;46160;-80
2022/01/19 06:46:00;;;;;;;;;30.00;25.00;;;;;7.25;69.60;102049.09;5074873;28;45647;-79
2022/01/19 06:48:26;;;;;;;;;36.50;32.75;;;;;7.25;69.86;102051.72;5074666;28;45547;-79
2022/01/19 06:50:51;;;;;;;;;35.50;28.00;;;;;7.07;70.06;102034.94;5074496;28;45581;-80
2022/01/19 06:56:52;;;;;;;;;40.25;31.00;;;;;7.20;70.34;102066.66;5073177;28;46055;-80
2022/01/19 06:59:17;;;;;;;;;33.25;31.25;;;;;7.10;70.35;102050.50;5074514;28;45786;-79
2022/01/19 07:01:42;;;;;;;;;41.50;31.25;;;;;7.11;70.46;102046.97;5074359;28;46105;-79
2022/01/19 07:04:11;;;;;;;;;40.25;31.75;;;;;7.06;70.58;102045.44;5074613;28;45539;-80
2022/01/19 07:06:37;;;;;;;;;33.75;26.75;;;;;7.16;70.67;102059.84;5056083;28;45859;-78
2022/01/19 07:09:02;;;;;;;;;38.75;35.50;;;;;7.14;70.52;102057.28;5074777;28;45757;-80
2022/01/19 07:11:27;;;;;;;;;38.00;31.25;;;;;7.15;71.07;102050.31;5074517;28;45617;-79
2022/01/19 07:13:53;;;;;;;;;43.75;36.25;;;;;7.06;70.90;102046.28;5074386;28;46286;-79
2022/01/19 07:16:19;;;;;;;;;36.75;30.75;;;;;7.13;71.10;102054.72;5073803;28;45630;-79
2022/01/19 07:18:44;;;;;;;;;33.75;27.75;;;;;7.13;71.38;102067.75;5074610;28;45606;-80
2022/01/19 07:21:10;;;;;;;;;44.50;38.50;;;;;7.05;71.22;102046.34;5074427;28;46483;-78
2022/01/19 07:26:57;;;;;;;;;34.25;30.00;;;;;7.04;71.87;102057.66;5073657;28;46024;-80
2022/01/19 07:29:22;;;;;;;;;38.00;34.00;;;;;7.07;71.95;102073.19;5074647;28;46003;-80
2022/01/19 07:31:48;;;;;;;;;41.25;33.00;;;;;7.00;71.91;102059.50;5074271;28;46490;-80
2022/01/19 07:34:13;;;;;;;;;33.25;28.75;;;;;7.03;72.43;102067.22;5074287;28;46156;-80
2022/01/19 07:36:39;;;;;;;;;42.75;36.50;;;;;6.93;72.51;102062.34;5073976;28;45696;-79
2022/01/19 07:39:05;;;;;;;;;46.50;32.50;;;;;6.98;72.17;102078.69;5074011;28;45749;-80
2022/01/19 07:41:30;;;;;;;;;39.75;32.00;;;;;6.90;72.38;102060.72;5074072;28;45605;-78
2022/01/19 07:43:56;;;;;;;;;46.25;39.00;;;;;6.93;72.41;102068.41;5073833;28;45520;-79
2022/01/19 07:46:21;;;;;;;;;34.00;29.00;;;;;6.95;72.55;102064.03;5073013;28;45688;-80
2022/01/19 07:48:46;;;;;;;;;37.50;33.50;;;;;6.91;72.40;102056.38;5073259;28;45857;-78
2022/01/19 07:51:12;;;;;;;;;38.75;32.25;;;;;6.89;72.59;102059.00;5073153;28;46695;-77
2022/01/19 07:57:00;;;;;;;;;39.25;33.50;;;;;6.99;72.49;102069.97;5073157;28;46029;-79
2022/01/19 07:59:25;;;;;;;;;39.25;31.50;;;;;7.01;72.76;102079.47;5055495;28;45866;-78
2022/01/19 08:01:53;;;;;;;;;34.50;29.75;;;;;6.98;72.85;102066.50;5072861;28;45594;-79
2022/01/19 08:04:18;;;;;;;;;27.75;21.50;;;;;6.88;73.17;102057.31;5073821;28;46199;-79
2022/01/19 08:06:44;;;;;;;;;21.25;15.75;;;;;7.05;73.05;102080.19;5073961;28;45612;-79
2022/01/19 08:09:09;;;;;;;;;32.75;28.00;;;;;6.99;73.05;102064.75;5074351;28;45489;-78
2022/01/19 08:11:36;;;;;;;;;36.75;32.50;;;;;6.91;72.92;102051.97;5074077;28;45603;-80
2022/01/19 08:14:01;;;;;;;;;35.75;28.75;;;;;7.03;72.76;102068.97;5074225;28;46169;-78
2022/01/19 08:16:26;;;;;;;;;30.50;26.00;;;;;7.02;73.05;102069.88;5074489;28;45695;-77
2022/01/19 08:18:52;;;;;;;;;31.25;29.00;;;;;7.09;73.18;102076.59;5076441;28;45863;-76
2022/01/19 08:21:19;;;;;;;;;37.00;30.00;;;;;7.03;73.20;102066.38;5079762;28;46381;-82
2022/01/19 08:27:05;;;;;;;;;27.25;24.25;;;;;7.08;73.28;102080.94;5079159;28;45641;-80
2022/01/19 08:29:34;;;;;;;;;28.25;25.50;;;;;7.03;73.21;102071.56;5078884;28;45464;-81
2022/01/19 08:31:59;;;;;;;;;39.25;25.75;;;;;7.15;73.26;102090.28;5080063;28;45716;-87
2022/01/19 08:34:25;;;;;;;;;33.75;30.50;;;;;7.01;73.17;102070.78;5078947;28;45530;-75
2022/01/19 08:36:50;;;;;;;;;34.75;27.25;;;;;7.18;73.19;102097.13;5077259;28;45999;-78
2022/01/19 08:39:16;;;;;;;;;38.50;30.00;;;;;7.20;73.25;102097.06;5080674;28;45706;-76
2022/01/19 08:41:41;;;;;;;;;30.50;28.00;;;;;7.18;73.20;102097.97;5077244;28;47201;-77
2022/01/19 08:44:07;;;;;;;;;30.50;28.75;;;;;7.24;73.20;102099.53;5077732;28;46014;-81
2022/01/19 08:46:32;;;;;;;;;36.50;30.50;;;;;7.18;73.20;102089.31;5080511;28;45607;-81
2022/01/19 08:48:58;;;;;;;;;34.00;28.00;;;;;7.22;73.45;102103.09;5078354;28;45603;-81
2022/01/19 08:51:23;;;;;;;;;31.75;28.50;;;;;7.27;73.79;102103.81;5074069;28;47351;-76
2022/01/19 08:57:25;;;;;;;;;31.75;26.50;;;;;7.20;73.14;102108.34;5073926;28;45705;-76
2022/01/19 08:59:50;;;;;;;;;31.25;27.25;;;;;7.04;73.28;102083.69;5074629;28;45613;-77
2022/01/19 09:02:16;;;;;;;;;27.75;25.75;;;;;7.29;73.36;102121.06;5074324;28;46825;-77
2022/01/19 09:04:42;;;;;;;;;37.00;30.75;;;;;7.21;73.36;102104.00;5074906;28;46720;-84
2022/01/19 09:07:07;;;;;;;;;26.00;25.00;;;;;7.32;73.03;102114.94;5074567;28;45506;-75
2022/01/19 09:09:32;;;;;;;;;31.25;24.25;;;;;7.02;73.21;102062.03;5074592;28;45555;-79
2022/01/19 09:11:58;;;;;;;;;40.50;35.00;;;;;7.26;73.31;102097.72;5074525;28;46410;-81
2022/01/19 09:14:23;;;;;;;;;38.25;30.00;;;;;7.42;73.26;102125.00;5078031;28;45675;-81
2022/01/19 09:16:51;;;;;;;;;31.75;28.50;;;;;7.39;73.20;102126.88;5079053;28;45705;-82
2022/01/19 09:19:19;;;;;;;;;38.00;30.75;;;;;7.42;73.11;102129.34;5080150;28;45549;-80
2022/01/19 09:21:45;;;;;;;;;38.00;28.25;;;;;7.45;73.15;102124.88;5078257;28;45672;-83
2022/01/19 09:27:33;;;;;;;;;30.75;25.25;;;;;7.44;72.94;102110.16;5077944;28;45714;-79
2022/01/19 09:29:58;;;;;;;;;28.50;26.50;;;;;7.47;73.08;102117.00;5077768;28;45620;-79
2022/01/19 09:32:24;;;;;;;;;26.00;20.75;;;;;7.47;72.98;102117.00;5077124;28;45592;-85
2022/01/19 09:34:55;;;;;;;;;29.50;26.00;;;;;7.46;73.19;102126.59;5078434;28;46089;-80
2022/01/19 09:37:21;;;;;;;;;33.00;29.75;;;;;7.46;73.05;102123.97;5076340;28;45588;-77
2022/01/19 09:39:47;;;;;;;;;37.25;25.75;;;;;7.56;72.87;102134.94;5076874;28;45664;-83
2022/01/19 09:42:12;;;;;;;;;24.00;22.50;;;;;7.57;72.95;102132.28;5077008;28;46079;-82
2022/01/19 09:44:38;;;;;;;;;28.75;27.25;;;;;7.57;72.88;102123.59;5077186;28;45581;-78
2022/01/19 09:47:04;;;;;;;;;30.50;25.25;;;;;7.59;72.79;102138.31;5077261;28;45487;-78
2022/01/19 09:49:30;;;;;;;;;31.25;26.00;;;;;7.61;72.97;102137.41;5058708;28;45786;-81
2022/01/19 09:51:56;;;;;;;;;35.25;25.00;;;;;7.63;72.74;102139.06;5076747;28;45591;-79
2022/01/19 09:57:43;;;;;;;;;29.25;23.50;;;;;7.51;72.55;102114.25;5075508;28;45873;-80
2022/01/19 10:00:09;;;;;;;;;32.25;28.25;;;;;7.62;72.74;102126.91;5077026;28;45569;-78
2022/01/19 10:02:34;;;;;;;;;32.00;29.50;;;;;7.60;72.68;102115.69;5076246;28;46330;-77
2022/01/19 10:05:09;;;;;;;;;33.50;27.25;;;;;7.63;72.55;102112.13;5076317;28;45611;-78
2022/01/19 10:07:34;;;;;;;;;32.25;29.75;;;;;7.72;72.60;102123.06;5076673;28;45525;-80
2022/01/19 10:10:09;;;;;;;;;37.00;25.75;;;;;7.75;72.35;102130.81;5077218;28;45769;-78
2022/01/19 10:18:20;;;;;;;;;32.25;27.25;;;;;7.75;72.49;102133.41;5077182;28;45982;-79
2022/01/19 10:20:48;;;;;;;;;38.00;30.25;;;;;7.67;72.31;102121.53;5077034;28;45649;-79
2022/01/19 10:23:37;;;;;;;;;45.00;35.25;;;;;7.68;72.51;102112.81;5076353;28;46931;-78
2022/01/19 10:26:05;;;;;;;;;39.50;31.00;;;;;7.75;72.36;102116.91;5076170;28;46364;-79
2022/01/19 10:28:31;;;;;;;;;35.50;29.00;;;;;7.63;72.44;102099.94;5078762;28;45646;-80
2022/01/19 10:31:00;;;;;;;;;39.25;35.00;;;;;7.78;72.59;102116.78;5084702;28;45610;-78
2022/01/19 10:33:26;;;;;;;;;38.00;33.25;;;;;7.75;72.34;102123.00;5084595;28;46285;-83
2022/01/19 10:35:51;;;;;;;;;38.00;32.50;;;;;7.77;72.25;102129.00;5082014;28;45572;-81
2022/01/19 10:38:27;;;;;;;;;49.25;39.75;;;;;7.78;72.44;102130.69;5077739;28;45516;-79
2022/01/19 10:40:55;;;;;;;;;42.50;37.50;;;;;7.81;72.44;102127.13;5076201;28;45792;-78
2022/01/19 10:43:42;;;;;;;;;33.25;29.25;;;;;7.61;72.56;102093.94;5057268;28;47648;-79
2022/01/19 10:46:16;;;;;;;;;40.50;33.75;;;;;7.78;72.56;102122.88;5075936;28;46416;-81
2022/01/19 10:48:43;;;;;;;;;41.50;30.50;;;;;7.79;72.63;102121.09;5075817;28;45669;-79
2022/01/19 10:51:16;;;;;;;;;43.75;37.50;;;;;7.79;72.57;102121.09;5076033;28;45531;-80
2022/01/19 10:54:04;;;;;;;;;38.50;34.25;;;;;7.76;72.81;102127.31;5076507;28;45692;-84
2022/01/19 10:56:31;;;;;;;;;50.25;42.50;;;;;7.66;72.71;102094.63;5077799;28;46098;-79
2022/01/19 10:59:03;;;;;;;;;58.00;43.50;;;;;7.69;72.92;102104.09;5058305;28;45944;-79
2022/01/19 11:01:43;;;;;;;;;51.75;40.75;;;;;7.68;72.82;102118.88;5076209;28;45592;-79
2022/01/19 11:04:31;;;;;;;;;57.25;42.50;;;;;7.70;72.92;102114.47;5077259;28;46480;-85
2022/01/19 11:07:08;;;;;;;;;53.00;45.00;;;;;7.54;73.00;102090.69;5076555;28;45740;-80
2022/01/19 11:09:44;;;;;;;;;61.00;41.50;;;;;7.63;73.04;102094.72;5076369;28;45964;-77
2022/01/19 11:12:15;;;;;;;;;59.00;48.00;;;;;7.57;73.09;102087.09;5075831;28;45510;-79
2022/01/19 11:14:42;;;;;;;;;52.00;43.00;;;;;7.68;73.14;102098.00;5075643;28;45638;-77
2022/01/19 11:17:08;;;;;;;;;62.00;45.50;;;;;7.70;73.10;102104.03;5075215;28;46134;-77
2022/01/19 11:19:39;;;;;;;;;51.00;38.50;;;;;7.69;73.10;102101.47;5075993;28;45609;-78
2022/01/19 11:22:34;;;;;;;;;56.00;45.00;;;;;7.68;73.05;102094.56;5075996;28;45701;-79
2022/01/19 11:25:07;;;;;;;;;53.25;42.25;;;;;7.59;73.11;102083.56;5075155;28;46560;-80
2022/01/19 11:27:47;;;;;;;;;51.00;42.00;;;;;7.64;73.17;102087.75;5075263;28;46252;-79
2022/01/19 11:30:13;;;;;;;;;62.25;46.00;;;;;7.69;73.35;102094.50;5075087;28;46213;-80
2022/01/19 11:32:39;;;;;;;;;53.25;39.00;;;;;7.66;73.23;102078.13;5076143;28;45742;-83
2022/01/19 11:35:06;;;;;;;;;48.50;40.00;;;;;7.65;73.48;102076.41;5074589;28;46480;-77
2022/01/19 11:40:40;;;;;;;;;42.75;37.00;;;;;7.62;73.47;102060.84;5074632;28;46013;-80
2022/01/19 11:43:21;;;;;;;;;55.00;42.50;;;;;7.68;73.56;102069.31;5074493;28;45870;-77
2022/01/19 11:45:46;;;;;;;;;53.25;42.00;;;;;7.70;73.61;102066.66;5074800;28;45500;-75
2022/01/19 11:48:24;;;;;;;;;50.00;41.50;;;;;7.48;73.68;102036.13;5074105;28;45596;-79
2022/01/19 11:50:52;;;;;;;;;45.75;42.00;;;;;7.73;73.96;102072.63;5074401;28;45671;-77
2022/01/19 11:56:58;;;;;;;;;58.00;43.50;;;;;7.71;73.78;102050.97;5074392;28;46193;-76
2022/01/19 11:59:25;;;;;;;;;50.50;40.75;;;;;7.55;73.73;102011.56;5075087;28;46595;-80
2022/01/19 12:01:51;;;;;;;;;47.25;39.50;;;;;7.51;73.80;102011.69;5076569;28;45557;-78
2022/01/19 12:04:22;;;;;;;;;25.50;23.50;;;;;7.62;74.24;102025.19;5078566;28;45782;-85
2022/01/19 12:06:48;;;;;;;;;39.75;35.25;;;;;7.69;73.74;102038.88;5080681;28;46602;-80
2022/01/19 12:12:43;;;;;;;;;46.25;36.50;;;;;7.76;73.85;102046.44;5077857;28;45724;-89
2022/01/19 12:15:49;;;;;;;;;32.00;28.25;;;;;7.77;73.77;102035.09;5077161;28;45743;-78
2022/01/19 12:18:42;;;;;;;;;29.75;27.50;;;;;7.79;73.66;102033.28;5074454;28;45969;-79
2022/01/19 12:21:21;;;;;;;;;40.00;30.50;;;;;7.76;73.58;102020.34;5075163;28;46526;-80
2022/01/19 12:23:48;;;;;;;;;31.75;26.50;;;;;7.79;73.65;102017.63;5075939;28;45544;-77
2022/01/19 12:26:14;;;;;;;;;38.75;30.75;;;;;7.83;73.61;102024.41;5075472;28;45627;-78
2022/01/19 12:28:49;;;;;;;;;33.75;25.50;;;;;7.72;73.76;101997.88;5074809;28;45781;-79
2022/01/19 12:31:30;;;;;;;;;36.50;35.00;;;;;7.89;73.60;102018.13;5076727;28;45684;-87
2022/01/19 12:34:02;;;;;;;;;48.75;37.75;;;;;7.94;73.58;102031.84;5079230;28;45667;-84
2022/01/19 12:36:50;;;;;;;;;33.50;26.50;;;;;7.94;73.43;102027.47;5079153;28;45562;-79
2022/01/19 12:39:25;;;;;;;;;25.75;22.50;;;;;7.94;73.15;102035.31;5082630;28;47119;-88
2022/01/19 12:42:01;;;;;;;;;30.50;27.50;;;;;7.87;73.40;102015.59;5069401;28;46554;-80
2022/01/19 12:44:49;;;;;;;;;25.75;24.00;;;;;7.96;73.49;102014.38;5088864;28;45559;-81
2022/01/19 12:47:27;;;;;;;;;27.75;23.75;;;;;7.98;73.63;102020.41;5090189;28;45515;-88
2022/01/19 12:49:52;;;;;;;;;26.00;22.00;;;;;7.99;73.21;102009.88;5085225;28;45706;-88
2022/01/19 12:52:19;;;;;;;;;28.50;26.25;;;;;7.92;73.34;101986.72;5080290;28;46522;-89
2022/01/19 12:54:45;;;;;;;;;27.50;23.50;;;;;8.05;73.31;102003.59;5081598;28;45498;-85
2022/01/19 12:57:15;;;;;;;;;27.25;24.50;;;;;7.88;73.02;101970.31;5083231;28;45466;-90
2022/01/19 12:59:42;;;;;;;;;28.50;22.50;;;;;7.96;73.29;101970.88;5083458;28;45569;-82
2022/01/19 13:02:09;;;;;;;;;20.50;19.75;;;;;8.13;73.16;102001.56;5080314;28;46065;-80
2022/01/19 13:04:36;;;;;;;;;34.25;24.75;;;;;8.14;73.13;101995.44;5078396;28;45627;-77
2022/01/19 13:07:34;;;;;;;;;25.50;23.50;;;;;8.15;73.20;101975.41;5077939;28;45693;-77
2022/01/19 13:10:24;;;;;;;;;27.25;24.50;;;;;8.18;72.80;101978.72;4976609;28;45658;-80
2022/01/19 13:15:38;;;;;;;;;31.00;25.50;;;;;8.18;72.93;101983.09;4976504;28;45688;-82
2022/01/19 13:18:04;;;;;;;;;26.50;17.50;;;;;8.12;72.94;101975.50;4976355;28;45689;-79
2022/01/19 13:20:31;;;;;;;;;22.25;19.50;;;;;8.18;72.88;101990.91;4975153;28;45710;-80
2022/01/19 13:22:57;;;;;;;;;19.25;16.75;;;;;8.19;72.62;101990.03;4975306;28;46259;-76
2022/01/19 13:25:28;;;;;;;;;25.75;19.00;;;;;8.15;72.51;101984.03;4975683;28;45853;-76
2022/01/19 13:27:56;;;;;;;;;24.25;22.00;;;;;8.17;72.48;101994.44;4981254;28;45858;-78
2022/01/19 13:30:24;;;;;;;;;26.00;23.00;;;;;8.18;72.54;102001.38;4982735;28;46366;-78
2022/01/19 13:32:50;;;;;;;;;25.50;22.00;;;;;8.17;72.57;101995.28;4985465;28;45733;-86
2022/01/19 13:35:17;;;;;;;;;24.00;22.25;;;;;8.17;72.61;102007.50;4982502;28;45723;-82
2022/01/19 13:37:48;;;;;;;;;19.50;16.75;;;;;8.18;72.53;101994.38;4988862;28;45521;-84
2022/01/19 13:40:20;;;;;;;;;21.75;20.25;;;;;8.17;72.31;102004.88;4988863;28;46462;-79
2022/01/19 13:42:59;;;;;;;;;22.00;17.75;;;;;8.06;72.43;101994.84;4972757;28;45470;-78
2022/01/19 13:48:51;;;;;;;;;25.25;19.50;;;;;8.09;72.56;101975.63;5083754;28;45468;-80
2022/01/19 13:51:06;;;;;;;;;21.50;19.00;;;;;8.11;72.57;101992.06;5066189;28;45650;-77
2022/01/19 13:57:01;;;;;;;;;25.25;22.25;;;;;8.13;72.77;101979.81;5083679;28;45522;-77
2022/01/19 13:59:27;;;;;;;;;26.75;22.25;;;;;8.13;73.14;101980.66;5088802;28;45229;-76
2022/01/19 14:01:59;;;;;;;;;28.00;20.75;;;;;8.13;73.19;101971.97;5082717;28;45671;-80
2022/01/19 14:04:30;;;;;;;;;24.00;22.00;;;;;8.04;73.38;101959.31;5079621;28;46266;-84
2022/01/19 14:07:10;;;;;;;;;24.25;21.00;;;;;8.12;73.60;101970.28;5078133;28;45541;-84
2022/01/19 14:12:57;;;;;;;;;28.00;20.75;;;;;8.08;73.84;101964.34;5076510;28;45964;-79